To NAV CANADA Home Page Login to a new session Search on AWWS site Feedback and Comments Disclaimer Vers la page française équivalente Tips FAQ What's new on the site To the Forecasts and Observations / NOTAM section To "File a Flight Plan" website Publications and other links Update of the User's profile FIC Telephone Numbers My Weather Data Folder Route Weather Data Regional Weather Data Local Weather Data To the Forecasts and Observations / NOTAM section
Request Generated 08/03/2015 at 08:35:38 UTC . Weather information available at that time is displayed.

METAR/TAF

VANCOUVER/VANCOUVER INTL/BC    

METAR CYVR 030800Z 19004KT 20SM BKN210 18/16 A2986 RMK CI5 SLP112
DENSITY ALT 400FT=
METAR CYVR 030700Z 25003KT 20SM BKN200 19/16 A2986 RMK CI6 SLP111
DENSITY ALT 400FT=
METAR CYVR 030600Z 18003KT 090V190 20SM BKN200 20/17 A2986 RMK CI6
SLP112 DENSITY ALT 600FT=

TAF CYVR 030538Z 0306/0412 VRB03KT P6SM BKN240
BECMG 0308/0310 10007KT
BECMG 0317/0319 28010KT
FM032100 28010KT P6SM SCT080 BKN140
FM040300 28015G25KT P6SM FEW060
RMK NXT FCST BY 030900Z=
Your time UTC time
Weather data provided by Environment Canada and NAV CANADA